This is the latest recevied weather packets stored in our database for station/object KQ4HEI. If no packets are shown the sender has not sent any weather packets the latest 10 day(s).
| Time | Temp. | Humidity | Pressure | Rain* | Wind** | Luminosity | Snow |
|---|---|---|---|---|---|---|---|
| 1788409292 | 24.44° C | 99% | 1014.4 hPa | 0 mm | - | - | - |
| 1788408692 | 24.44° C | 99% | 1014.4 hPa | 0 mm | - | - | - |
| 1788408092 | 24.44° C | 99% | 1014.4 hPa | 0 mm | - | - | - |
| 1788407492 | 24.44° C | 99% | 1014.4 hPa | 0 mm | - | - | - |
| 1788406892 | 24.44° C | 99% | 1014.4 hPa | 0 mm | - | - | - |
| 1788406292 | 24.44° C | 99% | 1014.3 hPa | 0 mm | - | - | - |
| 1788405693 | 24.44° C | 98% | 1014.4 hPa | 0 mm | - | - | - |
| 1788405092 | 24.44° C | 98% | 1014.4 hPa | 0 mm | - | - | - |
| 1788404492 | 24.44° C | 97% | 1014.3 hPa | 0 mm | - | - | - |
| 1788403892 | 25° C | 96% | 1014.3 hPa | 0 mm | - | - | - |
| 1788403292 | 25° C | 95% | 1014.4 hPa | 0 mm | - | - | - |
| 1788402092 | 25° C | 95% | 1014.4 hPa | 0 mm | - | - | - |
| 1788401492 | 25.56° C | 95% | 1014.4 hPa | 0 mm | - | - | - |
| 1788400292 | 25.56° C | 93% | 1014.2 hPa | 0 mm | - | - | - |
| 1788379892 | 35.56° C | 54% | 1014.1 hPa | 0 mm | - | - | - |
| 1788379291 | 35.56° C | 53% | 1014.1 hPa | 0 mm | - | - | - |
| 1788378692 | 36.11° C | 52% | 1014.2 hPa | 0 mm | - | - | - |
| 1788377492 | 37.22° C | 50% | 1014.5 hPa | 0 mm | - | - | - |
| 1788376892 | 37.22° C | 51% | 1014.7 hPa | 0 mm | - | - | - |
| 1788375693 | 36.11° C | 55% | 1014.9 hPa | 0 mm | - | - | - |
| 1788374492 | 35° C | 59% | 1015.1 hPa | 0 mm | - | - | - |
| 1788373891 | 35° C | 55% | 1015.3 hPa | 0 mm | - | - | - |
| 1788373292 | 35.56° C | 56% | 1015.4 hPa | 0 mm | - | - | - |
| 1788372692 | 35° C | 59% | 1015.3 hPa | 0 mm | - | - | - |
| 1788372092 | 35° C | 62% | 1015.4 hPa | 0 mm | - | - | - |
* Rain latest hour (hover to see other rain measurements)
** Current wind speed in m/s (hover to see current wind gust speed)